F/V Oceanis — FHLH — position and weather

sailwx.info

Track history (hours):
 
Tides and Currents Weather Stations Pressure Air Temp Water Temp Dewpoint Dewpoint Depression Visibility Wind Speed Wind Dir Waves Ship Positions

F/V Oceanis

Last reported at 2018-Apr-20 08:30 UTC. Time now 2018-Apr-20 08:44 UTC.
Position N 45°24' W 001°13'.

Type: Other ship. MMSI: 228385000.

Date/timePositionNaut miles runAvg speedWind from/ knotsBaromVisibWave heightAir tempDewpointWater temp
2018-Apr-20 08:30N 45°24' W 001°13'4 8.4
2018-Apr-20 08:00N 45°28' W 001°13'4 8.6
2018-Apr-20 07:30N 45°32' W 001°10'4 8.3
2018-Apr-20 07:00N 45°35' W 001°06'4 7.5
2018-Apr-20 06:30N 45°37' W 001°02'4 7.2
2018-Apr-20 06:00N 45°35' W 001°06'510.6
2018-Apr-20 05:31N 45°31' W 001°11'5 9.1
2018-Apr-20 04:56N 45°26' W 001°13'4 8.8
2018-Apr-20 04:30N 45°23' W 001°14'0 0.6
2018-Apr-20 04:00N 45°22' W 001°14'0 0.7
2018-Apr-20 03:30N 45°22' W 001°14'0 0.7
2018-Apr-20 03:00N 45°22' W 001°14'0 0.7
2018-Apr-20 02:26N 45°21' W 001°13'5 2.3
2018-Apr-20 00:19N 45°17' W 001°12'2 1.7
2018-Apr-19 22:55N 45°14' W 001°13'22 6.1
2018-Apr-19 19:17N 44°52' W 001°15'2 8.5
2018-Apr-19 19:00N 44°50' W 001°15'4 8.5
2018-Apr-19 18:30N 44°46' W 001°15'4 8.4
2018-Apr-19 18:00N 44°42' W 001°16'1 1.7
2018-Apr-19 17:30N 44°42' W 001°16'0 0.2
2018-Apr-19 17:00N 44°42' W 001°16'3 6.2
2018-Apr-19 16:29N 44°40' W 001°18'4 8.7
2018-Apr-19 16:00N 44°35' W 001°18'2 4.2
2018-Apr-19 15:30N 44°35' W 001°15'3 6.5
2018-Apr-19 15:00N 44°38' W 001°14'3 6.9
2018-Apr-19 14:30N 44°40' W 001°10'1 2.4
2018-Apr-19 14:00N 44°39' W 001°09'0 0.0
2018-Apr-19 13:30N 44°39' W 001°09'  
2018-Apr-15 21:54N 44°39' W 001°09'0 0.0
2018-Apr-15 21:30N 44°39' W 001°09'0 0.0
2018-Apr-15 21:01N 44°39' W 001°09'0 0.1
2018-Apr-15 20:30N 44°39' W 001°09'0 0.0
2018-Apr-15 20:00N 44°39' W 001°09'0 0.0
2018-Apr-15 19:30N 44°39' W 001°09'0 0.0
2018-Apr-15 19:00N 44°39' W 001°09'2 3.7
2018-Apr-15 18:30N 44°40' W 001°11'3 6.0
2018-Apr-15 18:00N 44°38' W 001°14'3 5.9
2018-Apr-15 17:30N 44°35' W 001°15'2 4.0
2018-Apr-15 17:00N 44°36' W 001°18'5 9.1
2018-Apr-15 16:30N 44°40' W 001°17'5 9.1
2018-Apr-15 16:00N 44°45' W 001°17'5 9.2
2018-Apr-15 15:30N 44°49' W 001°16'5 9.3
2018-Apr-15 15:00N 44°54' W 001°15'5 9.1
2018-Apr-15 14:30N 44°58' W 001°15'23 1.3
2018-Apr-14 20:54N 45°21' W 001°12'27 1.1
2018-Apr-13 20:01N 44°55' W 001°15'0 8.5
2018-Apr-13 19:58N 44°54' W 001°15'4 8.5
2018-Apr-13 19:30N 44°50' W 001°15'4 8.6
2018-Apr-13 19:00N 44°46' W 001°16'9 8.5
2018-Apr-13 18:00N 44°38' W 001°18'4 7.3
2018-Apr-13 17:30N 44°34' W 001°16'611.2
2018-Apr-13 17:00N 44°39' W 001°13'3 5.9
2018-Apr-13 16:30N 44°39' W 001°09'0 0.1
2018-Apr-13 16:00N 44°39' W 001°09'0 0.0
2018-Apr-13 15:30N 44°39' W 001°09'0 0.0
2018-Apr-13 15:00N 44°39' W 001°09'0 0.0
2018-Apr-13 14:30N 44°39' W 001°09'4 3.6
2018-Apr-13 13:30N 44°38' W 001°14'3 2.6
2018-Apr-13 12:30N 44°38' W 001°17'4 8.7
2018-Apr-13 12:00N 44°42' W 001°17'4 8.7
2018-Apr-13 11:30N 44°46' W 001°16'4 8.8
2018-Apr-13 11:00N 44°51' W 001°15'5 8.9
2018-Apr-13 10:30N 44°55' W 001°14'26 4.0
2018-Apr-13 03:59N 45°21' W 001°12'2 0.3
2018-Apr-12 22:03N 45°19' W 001°11'0 2.2
2018-Apr-12 22:00N 45°19' W 001°11'1 1.1
2018-Apr-12 21:28N 45°19' W 001°12'2 1.4
2018-Apr-12 19:56N 45°21' W 001°12'1 0.1
2018-Apr-12 08:58N 45°20' W 001°11'2 0.4
2018-Apr-12 04:32N 45°22' W 001°12'0 9.4
2018-Apr-12 04:30N 45°22' W 001°12'5 9.4
2018-Apr-12 04:00N 45°27' W 001°13'1 2.2
2018-Apr-12 03:30N 45°28' W 001°14'1 1.2
2018-Apr-12 03:01N 45°28' W 001°13'1 2.4
2018-Apr-12 02:30N 45°29' W 001°13'0 0.3
2018-Apr-12 02:01N 45°29' W 001°13'1 1.7
2018-Apr-12 01:30N 45°30' W 001°13'0 0.5
2018-Apr-12 00:59N 45°30' W 001°13'4 5.8
2018-Apr-12 00:22N 45°27' W 001°13'3 5.9
2018-Apr-11 23:55N 45°24' W 001°13'3 0.2
2018-Apr-11 09:01N 45°21' W 001°12'1 0.2
2018-Apr-11 04:22N 45°22' W 001°13'1 1.9
2018-Apr-11 04:01N 45°23' W 001°13'0 0.4
2018-Apr-11 03:31N 45°23' W 001°13'1 1.9
2018-Apr-11 02:59N 45°22' W 001°13'1 0.2
2018-Apr-10 21:20N 45°23' W 001°13'0 0.5
2018-Apr-10 20:58N 45°23' W 001°12'0 0.5
2018-Apr-10 20:30N 45°23' W 001°13'1 0.2
2018-Apr-10 17:41N 45°22' W 001°13'1 2.3
2018-Apr-10 17:27N 45°23' W 001°13'2 4.5
2018-Apr-10 16:55N 45°25' W 001°13'2 3.9
2018-Apr-10 16:28N 45°27' W 001°13'3 6.7
2018-Apr-10 15:58N 45°30' W 001°13'4 9.2
2018-Apr-10 15:30N 45°33' W 001°08'5 9.6
2018-Apr-10 15:00N 45°36' W 001°03'1 3.0
2018-Apr-10 14:30N 45°37' W 001°02'0 0.1
2018-Apr-10 13:59N 45°37' W 001°02'0 0.0
2018-Apr-10 13:29N 45°37' W 001°02'0 0.0
2018-Apr-10 13:00N 45°37' W 001°02'0 0.0
2018-Apr-10 12:30N 45°37' W 001°02'0 0.0
2018-Apr-10 12:00N 45°37' W 001°02'0 0.0
2018-Apr-10 11:30N 45°37' W 001°02'0 0.0
2018-Apr-10 11:00N 45°37' W 001°02'4 7.1
2018-Apr-10 10:30N 45°35' W 001°05'5 9.9
2018-Apr-10 10:00N 45°32' W 001°11'5 9.4
2018-Apr-10 09:30N 45°28' W 001°15'  
Track history (hours):
 
Tides and Currents Weather Stations Pressure Air Temp Water Temp Dewpoint Dewpoint Depression Visibility Wind Speed Wind Dir Waves Ship Positions

F/V Oceanis

Last reported at 2018-Apr-20 08:30 UTC. Time now 2018-Apr-20 08:44 UTC.
Position N 45°24' W 001°13'.

Type: Other ship. MMSI: 228385000.

Date/timePositionNaut miles runAvg speedWind from/ knotsBaromVisibWave heightAir tempDewpointWater temp
2018-Apr-20 08:30N 45°24' W 001°13'4 8.4
2018-Apr-20 08:00N 45°28' W 001°13'4 8.6
2018-Apr-20 07:30N 45°32' W 001°10'4 8.3
2018-Apr-20 07:00N 45°35' W 001°06'4 7.5
2018-Apr-20 06:30N 45°37' W 001°02'4 7.2
2018-Apr-20 06:00N 45°35' W 001°06'510.6
2018-Apr-20 05:31N 45°31' W 001°11'5 9.1
2018-Apr-20 04:56N 45°26' W 001°13'4 8.8
2018-Apr-20 04:30N 45°23' W 001°14'0 0.6
2018-Apr-20 04:00N 45°22' W 001°14'0 0.7
2018-Apr-20 03:30N 45°22' W 001°14'0 0.7
2018-Apr-20 03:00N 45°22' W 001°14'0 0.7
2018-Apr-20 02:26N 45°21' W 001°13'5 2.3
2018-Apr-20 00:19N 45°17' W 001°12'2 1.7
2018-Apr-19 22:55N 45°14' W 001°13'22 6.1
2018-Apr-19 19:17N 44°52' W 001°15'2 8.5
2018-Apr-19 19:00N 44°50' W 001°15'4 8.5
2018-Apr-19 18:30N 44°46' W 001°15'4 8.4
2018-Apr-19 18:00N 44°42' W 001°16'1 1.7
2018-Apr-19 17:30N 44°42' W 001°16'0 0.2
2018-Apr-19 17:00N 44°42' W 001°16'3 6.2
2018-Apr-19 16:29N 44°40' W 001°18'4 8.7
2018-Apr-19 16:00N 44°35' W 001°18'2 4.2
2018-Apr-19 15:30N 44°35' W 001°15'3 6.5
2018-Apr-19 15:00N 44°38' W 001°14'3 6.9
2018-Apr-19 14:30N 44°40' W 001°10'1 2.4
2018-Apr-19 14:00N 44°39' W 001°09'0 0.0
2018-Apr-19 13:30N 44°39' W 001°09'  
2018-Apr-15 21:54N 44°39' W 001°09'0 0.0
2018-Apr-15 21:30N 44°39' W 001°09'0 0.0
2018-Apr-15 21:01N 44°39' W 001°09'0 0.1
2018-Apr-15 20:30N 44°39' W 001°09'0 0.0
2018-Apr-15 20:00N 44°39' W 001°09'0 0.0
2018-Apr-15 19:30N 44°39' W 001°09'0 0.0
2018-Apr-15 19:00N 44°39' W 001°09'2 3.7
2018-Apr-15 18:30N 44°40' W 001°11'3 6.0
2018-Apr-15 18:00N 44°38' W 001°14'3 5.9
2018-Apr-15 17:30N 44°35' W 001°15'2 4.0
2018-Apr-15 17:00N 44°36' W 001°18'5 9.1
2018-Apr-15 16:30N 44°40' W 001°17'5 9.1
2018-Apr-15 16:00N 44°45' W 001°17'5 9.2
2018-Apr-15 15:30N 44°49' W 001°16'5 9.3
2018-Apr-15 15:00N 44°54' W 001°15'5 9.1
2018-Apr-15 14:30N 44°58' W 001°15'23 1.3
2018-Apr-14 20:54N 45°21' W 001°12'27 1.1
2018-Apr-13 20:01N 44°55' W 001°15'0 8.5
2018-Apr-13 19:58N 44°54' W 001°15'4 8.5
2018-Apr-13 19:30N 44°50' W 001°15'4 8.6
2018-Apr-13 19:00N 44°46' W 001°16'9 8.5
2018-Apr-13 18:00N 44°38' W 001°18'4 7.3
2018-Apr-13 17:30N 44°34' W 001°16'611.2
2018-Apr-13 17:00N 44°39' W 001°13'3 5.9
2018-Apr-13 16:30N 44°39' W 001°09'0 0.1
2018-Apr-13 16:00N 44°39' W 001°09'0 0.0
2018-Apr-13 15:30N 44°39' W 001°09'0 0.0
2018-Apr-13 15:00N 44°39' W 001°09'0 0.0
2018-Apr-13 14:30N 44°39' W 001°09'4 3.6
2018-Apr-13 13:30N 44°38' W 001°14'3 2.6
2018-Apr-13 12:30N 44°38' W 001°17'4 8.7
2018-Apr-13 12:00N 44°42' W 001°17'4 8.7
2018-Apr-13 11:30N 44°46' W 001°16'4 8.8
2018-Apr-13 11:00N 44°51' W 001°15'5 8.9
2018-Apr-13 10:30N 44°55' W 001°14'26 4.0
2018-Apr-13 03:59N 45°21' W 001°12'2 0.3
2018-Apr-12 22:03N 45°19' W 001°11'0 2.2
2018-Apr-12 22:00N 45°19' W 001°11'1 1.1
2018-Apr-12 21:28N 45°19' W 001°12'2 1.4
2018-Apr-12 19:56N 45°21' W 001°12'1 0.1
2018-Apr-12 08:58N 45°20' W 001°11'2 0.4
2018-Apr-12 04:32N 45°22' W 001°12'0 9.4
2018-Apr-12 04:30N 45°22' W 001°12'5 9.4
2018-Apr-12 04:00N 45°27' W 001°13'1 2.2
2018-Apr-12 03:30N 45°28' W 001°14'1 1.2
2018-Apr-12 03:01N 45°28' W 001°13'1 2.4
2018-Apr-12 02:30N 45°29' W 001°13'0 0.3
2018-Apr-12 02:01N 45°29' W 001°13'1 1.7
2018-Apr-12 01:30N 45°30' W 001°13'0 0.5
2018-Apr-12 00:59N 45°30' W 001°13'4 5.8
2018-Apr-12 00:22N 45°27' W 001°13'3 5.9
2018-Apr-11 23:55N 45°24' W 001°13'3 0.2
2018-Apr-11 09:01N 45°21' W 001°12'1 0.2
2018-Apr-11 04:22N 45°22' W 001°13'1 1.9
2018-Apr-11 04:01N 45°23' W 001°13'0 0.4
2018-Apr-11 03:31N 45°23' W 001°13'1 1.9
2018-Apr-11 02:59N 45°22' W 001°13'1 0.2
2018-Apr-10 21:20N 45°23' W 001°13'0 0.5
2018-Apr-10 20:58N 45°23' W 001°12'0 0.5
2018-Apr-10 20:30N 45°23' W 001°13'1 0.2
2018-Apr-10 17:41N 45°22' W 001°13'1 2.3
2018-Apr-10 17:27N 45°23' W 001°13'2 4.5
2018-Apr-10 16:55N 45°25' W 001°13'2 3.9
2018-Apr-10 16:28N 45°27' W 001°13'3 6.7
2018-Apr-10 15:58N 45°30' W 001°13'4 9.2
2018-Apr-10 15:30N 45°33' W 001°08'5 9.6
2018-Apr-10 15:00N 45°36' W 001°03'1 3.0
2018-Apr-10 14:30N 45°37' W 001°02'0 0.1
2018-Apr-10 13:59N 45°37' W 001°02'0 0.0
2018-Apr-10 13:29N 45°37' W 001°02'0 0.0
2018-Apr-10 13:00N 45°37' W 001°02'0 0.0
2018-Apr-10 12:30N 45°37' W 001°02'0 0.0
2018-Apr-10 12:00N 45°37' W 001°02'0 0.0
2018-Apr-10 11:30N 45°37' W 001°02'0 0.0
2018-Apr-10 11:00N 45°37' W 001°02'4 7.1
2018-Apr-10 10:30N 45°35' W 001°05'5 9.9
2018-Apr-10 10:00N 45°32' W 001°11'5 9.4
2018-Apr-10 09:30N 45°28' W 001°15'  

Dump ship's entire track history